Terminal Aerodrome Forecast
Issued by NWS Sterling, VA

Current Version | Previous Version | Text Only | Print | Product List | Glossary Off
Versions: 1 2 3 4 5 6 7 8 9 10 11 12 13 14 15 16 17 18 19 20 21 22 23 24 25

000
FTUS41 KLWX 151731
TAFDCA
TAF
KDCA 151731Z 1518/1618 VRB03KT P6SM SCT035
     FM152100 13004KT P6SM BKN070
     FM160100 VRB03KT P6SM OVC025
     FM160800 22004KT P6SM BKN035
     FM161200 23004KT P6SM SCT250
     FM161600 29015G26KT P6SM SCT250=

USA.gov is the U.S. government's official web portal to all federal, state and local government web resources and services.